createdAt,value
2019-03-30T00:00:12.904Z,100812.92
2019-03-30T00:02:42.964Z,100808.81
2019-03-30T00:05:13.051Z,100808.76
2019-03-30T00:07:43.165Z,100799.77
2019-03-30T00:10:13.233Z,100807.27
2019-03-30T00:12:43.302Z,100804.70
2019-03-30T00:15:13.379Z,100802.49
2019-03-30T00:17:43.569Z,100797.09
2019-03-30T00:20:13.635Z,100798.95
2019-03-30T00:22:43.707Z,100789.56
2019-03-30T00:25:13.807Z,100795.20
2019-03-30T00:27:43.875Z,100791.70
2019-03-30T00:30:14.005Z,100791.36
2019-03-30T00:32:44.089Z,100790.30
2019-03-30T00:35:14.181Z,100785.34
2019-03-30T00:37:44.275Z,100785.48
2019-03-30T00:40:14.383Z,100781.36
2019-03-30T00:42:44.471Z,100787.17
2019-03-30T00:45:14.569Z,100786.69
2019-03-30T00:47:44.645Z,100787.73
2019-03-30T00:50:14.724Z,100786.52
2019-03-30T00:52:44.893Z,100787.23
2019-03-30T00:55:14.974Z,100793.64
2019-03-30T00:57:45.059Z,100784.66
2019-03-30T01:00:15.172Z,100792.87
2019-03-30T01:02:45.246Z,100786.80
2019-03-30T01:05:15.379Z,100790.05
2019-03-30T01:07:45.619Z,100786.53
2019-03-30T01:10:15.925Z,100788.45
2019-03-30T01:12:46.266Z,100785.41
2019-03-30T01:15:16.625Z,100785.27
2019-03-30T01:17:46.714Z,100783.34
2019-03-30T01:20:16.797Z,100783.72
2019-03-30T01:22:46.948Z,100781.80
2019-03-30T01:25:17.038Z,100778.22
2019-03-30T01:27:47.230Z,100778.92
2019-03-30T01:30:23.244Z,100784.02
2019-03-30T01:32:49.135Z,100781.14
2019-03-30T01:35:19.345Z,100779.55
2019-03-30T01:37:49.364Z,100784.44
2019-03-30T01:40:19.476Z,100779.84
2019-03-30T01:42:49.561Z,100775.36
2019-03-30T01:45:19.643Z,100776.10
2019-03-30T01:47:49.724Z,100772.22
2019-03-30T01:50:19.820Z,100769.92
2019-03-30T01:52:49.909Z,100769.58
2019-03-30T01:55:20.000Z,100773.69
2019-03-30T01:57:50.091Z,100777.68
2019-03-30T02:00:20.241Z,100770.42
2019-03-30T02:02:50.341Z,100769.09
2019-03-30T02:05:20.434Z,100778.44
2019-03-30T02:07:50.537Z,100773.46
2019-03-30T02:10:38.335Z,100766.20
2019-03-30T02:13:08.460Z,100771.04
2019-03-30T02:15:38.562Z,100773.70
2019-03-30T02:18:08.738Z,100765.13
2019-03-30T02:20:40.317Z,100766.34
2019-03-30T02:23:10.447Z,100773.23
2019-03-30T02:25:40.527Z,100769.47
2019-03-30T02:28:10.802Z,100767.67
2019-03-30T02:30:41.007Z,100763.55
2019-03-30T02:33:11.092Z,100753.72
2019-03-30T02:35:41.235Z,100754.33
2019-03-30T02:38:11.368Z,100751.64
2019-03-30T02:40:41.473Z,100755.30
2019-03-30T02:43:11.531Z,100749.94
2019-03-30T02:45:41.665Z,100754.28
2019-03-30T02:48:11.758Z,100753.44
2019-03-30T02:50:50.069Z,100759.48
2019-03-30T02:53:13.644Z,100765.80
2019-03-30T02:55:43.741Z,100763.88
2019-03-30T02:58:13.834Z,100766.66
2019-03-30T03:00:43.925Z,100771.04
2019-03-30T03:03:14.043Z,100772.97
2019-03-30T03:05:44.214Z,100767.64
2019-03-30T03:08:14.280Z,100737.84
2019-03-30T03:10:44.423Z,100774.28
2019-03-30T03:13:14.615Z,100778.30
2019-03-30T03:15:44.721Z,100782.03
2019-03-30T03:18:14.790Z,100774.53
2019-03-30T03:20:44.889Z,100777.10
2019-03-30T03:23:14.999Z,100785.96
2019-03-30T03:25:45.080Z,100794.54
2019-03-30T03:28:15.290Z,100791.17
2019-03-30T03:30:45.385Z,100794.54
2019-03-30T03:33:15.510Z,100791.64
2019-03-30T03:35:45.618Z,100799.39
2019-03-30T03:38:15.714Z,100796.24
2019-03-30T03:40:45.793Z,100798.44
2019-03-30T03:43:15.866Z,100804.62
2019-03-30T03:45:45.970Z,100810.92
2019-03-30T03:48:16.045Z,100802.80
2019-03-30T03:50:48.575Z,100813.20
2019-03-30T03:53:18.659Z,100806.69
2019-03-30T03:55:49.204Z,100816.87
2019-03-30T03:58:19.309Z,100813.36
2019-03-30T04:00:49.411Z,100807.17
2019-03-30T04:03:19.528Z,100815.77
2019-03-30T04:05:49.614Z,100817.93
2019-03-30T04:08:19.822Z,100816.37
2019-03-30T04:10:50.444Z,100822.06
2019-03-30T04:13:20.561Z,100824.62
2019-03-30T04:15:50.622Z,100821.33
2019-03-30T04:18:20.737Z,100820.00
2019-03-30T04:20:50.826Z,100815.17
2019-03-30T04:23:20.908Z,100825.20
2019-03-30T04:25:51.016Z,100821.34
2019-03-30T04:28:21.117Z,100820.73
2019-03-30T04:30:51.221Z,100815.17
2019-03-30T04:33:22.940Z,100817.94
2019-03-30T04:35:54.136Z,100807.14
2019-03-30T04:38:24.235Z,100817.34
2019-03-30T04:40:54.347Z,100822.41
2019-03-30T04:43:24.435Z,100832.25
2019-03-30T04:45:54.559Z,100823.37
2019-03-30T04:48:24.666Z,100821.20
2019-03-30T04:50:54.760Z,100820.59
2019-03-30T04:53:24.866Z,100813.43
2019-03-30T04:55:54.946Z,100817.93
2019-03-30T04:58:25.078Z,100828.94
2019-03-30T05:00:55.198Z,100825.30
2019-03-30T05:03:25.318Z,100823.59
2019-03-30T05:05:55.385Z,100825.42
2019-03-30T05:08:25.517Z,100835.50
2019-03-30T05:10:55.620Z,100830.16
2019-03-30T05:13:25.712Z,100835.23
2019-03-30T05:15:55.783Z,100841.33
2019-03-30T05:18:25.931Z,100843.14
2019-03-30T05:20:56.041Z,100839.38
2019-03-30T05:23:26.139Z,100848.20
2019-03-30T05:25:56.250Z,100845.91
2019-03-30T05:28:26.352Z,100852.98
2019-03-30T05:30:56.436Z,100853.47
2019-03-30T05:33:26.507Z,100854.80
2019-03-30T05:35:56.620Z,100854.05
2019-03-30T05:38:26.717Z,100842.89
2019-03-30T05:40:56.875Z,100839.83
2019-03-30T05:43:27.021Z,100853.30
2019-03-30T05:45:57.163Z,100856.58
2019-03-30T05:48:27.445Z,100852.58
2019-03-30T05:50:57.535Z,100851.61
2019-03-30T05:53:27.629Z,100851.09
2019-03-30T05:55:57.735Z,100849.12
2019-03-30T05:58:27.995Z,100857.95
2019-03-30T06:00:58.149Z,100855.77
2019-03-30T06:03:28.303Z,100854.88
2019-03-30T06:05:58.501Z,100856.66
2019-03-30T06:08:28.638Z,100857.72
2019-03-30T06:10:58.783Z,100867.80
2019-03-30T06:13:28.930Z,100869.22
2019-03-30T06:15:59.006Z,100866.06
2019-03-30T06:18:29.169Z,100868.11
2019-03-30T06:20:59.238Z,100867.75
2019-03-30T06:23:29.362Z,100872.93
2019-03-30T06:25:59.457Z,100874.09
2019-03-30T06:28:29.525Z,100867.58
2019-03-30T06:30:59.614Z,100875.60
2019-03-30T06:33:29.741Z,100875.91
2019-03-30T06:35:59.829Z,100869.67
2019-03-30T06:38:30.103Z,100871.06
2019-03-30T06:41:00.214Z,100878.24
2019-03-30T06:43:30.337Z,100875.56
2019-03-30T06:46:00.439Z,100872.52
2019-03-30T06:48:30.541Z,100874.05
2019-03-30T06:51:00.627Z,100871.67
2019-03-30T06:53:30.705Z,100884.02
2019-03-30T06:56:00.779Z,100879.27
2019-03-30T06:58:31.017Z,100874.55
2019-03-30T07:01:01.253Z,100872.84
2019-03-30T07:03:31.357Z,100876.66
2019-03-30T07:06:01.571Z,100871.00
2019-03-30T07:08:31.852Z,100870.17
2019-03-30T07:11:02.180Z,100879.70
2019-03-30T07:13:32.264Z,100872.73
2019-03-30T07:16:02.476Z,100883.91
2019-03-30T07:18:32.584Z,100879.98
2019-03-30T07:21:02.700Z,100884.71
2019-03-30T07:23:32.786Z,100890.16
2019-03-30T07:26:02.898Z,100888.37
2019-03-30T07:28:32.985Z,100891.39
2019-03-30T07:31:03.072Z,100881.52
2019-03-30T07:33:33.161Z,100878.16
2019-03-30T07:36:03.300Z,100879.50
2019-03-30T07:38:33.552Z,100881.52
2019-03-30T07:41:03.735Z,100880.67
2019-03-30T07:43:33.946Z,100879.91
2019-03-30T07:46:04.058Z,100883.30
2019-03-30T07:48:34.174Z,100885.05
2019-03-30T07:51:04.264Z,100882.23
2019-03-30T07:53:44.281Z,100879.91
2019-03-30T07:56:08.653Z,100877.35
2019-03-30T07:58:38.013Z,100877.05
2019-03-30T08:01:08.115Z,100875.47
2019-03-30T08:03:38.211Z,100872.19
2019-03-30T08:06:08.255Z,100882.05
2019-03-30T08:08:38.416Z,100888.09
2019-03-30T08:11:08.508Z,100883.39
2019-03-30T08:13:38.682Z,100880.42
2019-03-30T08:16:08.765Z,100878.34
2019-03-30T08:18:38.859Z,100877.75
2019-03-30T08:21:09.271Z,100878.73
2019-03-30T08:23:40.518Z,100879.02
2019-03-30T08:26:10.934Z,100869.41
2019-03-30T08:28:41.071Z,100865.60
2019-03-30T08:31:11.178Z,100870.17
2019-03-30T08:33:41.340Z,100869.35
2019-03-30T08:36:11.451Z,100873.95
2019-03-30T08:38:41.547Z,100858.97
2019-03-30T08:41:11.633Z,100863.25
2019-03-30T08:43:41.736Z,100860.31
2019-03-30T08:46:11.870Z,100851.25
2019-03-30T08:48:42.073Z,100859.03
2019-03-30T08:51:12.227Z,100862.81
2019-03-30T08:53:54.035Z,100855.30
2019-03-30T08:56:14.256Z,100848.08
2019-03-30T08:58:44.374Z,100843.42
2019-03-30T09:01:14.467Z,100843.12
2019-03-30T09:03:44.781Z,100839.84
2019-03-30T09:06:14.892Z,100843.22
2019-03-30T09:08:45.005Z,100837.36
2019-03-30T09:11:15.101Z,100833.05
2019-03-30T09:13:45.317Z,100840.73
2019-03-30T09:16:15.539Z,100834.80
2019-03-30T09:18:45.658Z,100828.72
2019-03-30T09:21:15.767Z,100826.58
2019-03-30T09:23:45.887Z,100825.04
2019-03-30T09:26:16.819Z,100825.41
2019-03-30T09:28:46.942Z,100822.50
2019-03-30T09:31:17.055Z,100819.52
2019-03-30T09:33:48.375Z,100815.53
2019-03-30T09:36:18.458Z,100815.27
2019-03-30T09:38:48.642Z,100807.58
2019-03-30T09:41:18.723Z,100815.88
2019-03-30T09:43:48.895Z,100816.18
2019-03-30T09:46:19.103Z,100803.19
2019-03-30T09:48:49.308Z,100797.02
2019-03-30T09:51:19.507Z,100792.87
2019-03-30T09:53:49.680Z,100784.74
2019-03-30T09:56:19.785Z,100784.23
2019-03-30T09:58:49.872Z,100775.92
2019-03-30T10:01:19.973Z,100777.48
2019-03-30T10:03:50.049Z,100773.80
2019-03-30T10:06:20.237Z,100765.72
2019-03-30T10:08:50.494Z,100769.16
2019-03-30T10:11:20.722Z,100759.95
2019-03-30T10:13:50.858Z,100760.04
2019-03-30T10:16:21.021Z,100754.55
2019-03-30T10:18:51.259Z,100757.78
2019-03-30T10:21:21.460Z,100745.89
2019-03-30T10:23:51.574Z,100745.63
2019-03-30T10:26:21.674Z,100744.73
2019-03-30T10:28:51.774Z,100737.19
2019-03-30T10:31:21.842Z,100737.50
2019-03-30T10:33:51.962Z,100729.63
2019-03-30T10:36:22.042Z,100722.55
2019-03-30T10:38:52.327Z,100719.11
2019-03-30T10:41:22.627Z,100709.98
2019-03-30T10:43:52.843Z,100707.27
2019-03-30T10:46:23.011Z,100702.09
2019-03-30T10:48:53.294Z,100694.14
2019-03-30T10:51:23.413Z,100698.80
2019-03-30T10:53:53.491Z,100688.95
2019-03-30T10:56:23.579Z,100679.73
2019-03-30T10:58:53.773Z,100680.17
2019-03-30T11:01:23.870Z,100675.48
2019-03-30T11:03:53.961Z,100669.07
2019-03-30T11:06:24.057Z,100670.25
2019-03-30T11:08:54.137Z,100665.17
2019-03-30T11:11:24.231Z,100655.73
2019-03-30T11:13:54.372Z,100658.08
2019-03-30T11:16:24.480Z,100644.22
2019-03-30T11:18:54.638Z,100638.84
2019-03-30T11:21:24.808Z,100640.62
2019-03-30T11:23:54.960Z,100637.02
2019-03-30T11:26:25.052Z,100641.31
2019-03-30T11:28:55.178Z,100636.63
2019-03-30T11:31:25.398Z,100632.84
2019-03-30T11:33:55.550Z,100625.75
2019-03-30T11:36:25.656Z,100621.66
2019-03-30T11:38:55.763Z,100624.69
2019-03-30T11:41:25.863Z,100625.36
2019-03-30T11:43:55.966Z,100621.62
2019-03-30T11:46:26.095Z,100622.88
2019-03-30T11:48:56.195Z,100609.53
2019-03-30T11:51:26.374Z,100602.34
2019-03-30T11:53:56.498Z,100606.23
2019-03-30T11:56:26.660Z,100609.21
2019-03-30T11:58:56.910Z,100599.00
2019-03-30T12:01:27.032Z,100596.34
2019-03-30T12:03:57.124Z,100571.02
2019-03-30T12:06:27.305Z,100590.02
2019-03-30T12:08:57.718Z,100583.16
2019-03-30T12:11:27.761Z,100583.33
2019-03-30T12:13:57.959Z,100577.70
2019-03-30T12:16:28.087Z,100578.05
2019-03-30T12:18:58.494Z,100574.74
2019-03-30T12:21:28.661Z,100572.08
2019-03-30T12:24:00.513Z,100563.68
2019-03-30T12:26:31.086Z,100562.41
2019-03-30T12:29:01.272Z,100550.93
2019-03-30T12:31:31.811Z,100552.27
2019-03-30T12:34:01.916Z,100540.40
2019-03-30T12:36:31.994Z,100546.38
2019-03-30T12:39:02.094Z,100531.27
2019-03-30T12:41:32.206Z,100536.33
2019-03-30T12:44:02.350Z,100535.36
2019-03-30T12:46:32.435Z,100536.64
2019-03-30T12:49:02.649Z,100539.46
2019-03-30T12:51:32.758Z,100529.02
2019-03-30T12:54:02.845Z,100529.56
2019-03-30T12:56:32.956Z,100533.74
2019-03-30T12:59:03.132Z,100527.70
2019-03-30T13:01:33.241Z,100529.80
2019-03-30T13:04:03.348Z,100517.65
2019-03-30T13:06:33.457Z,100521.64
2019-03-30T13:09:04.754Z,100515.76
2019-03-30T13:11:34.861Z,100511.80
2019-03-30T13:14:04.981Z,100515.45
2019-03-30T13:16:35.113Z,100506.78
2019-03-30T13:19:05.239Z,100503.62
2019-03-30T13:21:35.352Z,100501.96
2019-03-30T13:24:05.470Z,100499.67
2019-03-30T13:26:35.565Z,100500.91
2019-03-30T13:29:05.831Z,100499.02
2019-03-30T13:31:35.982Z,100495.67
2019-03-30T13:34:06.051Z,100494.02
2019-03-30T13:36:43.072Z,100489.16
2019-03-30T13:39:13.161Z,100492.87
2019-03-30T13:41:43.278Z,100477.45
2019-03-30T13:44:15.607Z,100476.09
2019-03-30T13:46:45.690Z,100483.22
2019-03-30T13:49:15.767Z,100479.22
2019-03-30T13:51:45.853Z,100479.52
2019-03-30T13:54:15.966Z,100481.59
2019-03-30T13:56:46.112Z,100476.35
2019-03-30T13:59:16.176Z,100475.92
2019-03-30T14:01:46.282Z,100469.83
2019-03-30T14:04:16.363Z,100470.14
2019-03-30T14:06:46.453Z,100461.72
2019-03-30T14:09:16.548Z,100461.59
2019-03-30T14:11:46.695Z,100457.09
2019-03-30T14:14:16.777Z,100459.61
2019-03-30T14:16:46.882Z,100459.55
2019-03-30T14:19:16.970Z,100456.44
2019-03-30T14:21:47.043Z,100448.97
2019-03-30T14:24:17.143Z,100450.78
2019-03-30T14:26:47.211Z,100444.25
2019-03-30T14:29:17.301Z,100447.27
2019-03-30T14:31:47.404Z,100444.39
2019-03-30T14:34:17.506Z,100446.59
2019-03-30T14:36:47.598Z,100451.08
2019-03-30T14:39:17.687Z,100450.41
2019-03-30T14:41:47.804Z,100448.36
2019-03-30T14:44:17.926Z,100449.63
2019-03-30T14:46:48.005Z,100448.16
2019-03-30T14:49:18.186Z,100444.85
2019-03-30T14:51:48.331Z,100438.41
2019-03-30T14:54:18.420Z,100441.44
2019-03-30T14:56:48.514Z,100444.20
2019-03-30T14:59:18.586Z,100439.71
2019-03-30T15:01:48.683Z,100437.52
2019-03-30T15:04:18.780Z,100436.81
2019-03-30T15:06:48.874Z,100435.78
2019-03-30T15:09:18.933Z,100427.98
2019-03-30T15:11:49.030Z,100430.80
2019-03-30T15:14:19.131Z,100433.64
2019-03-30T15:16:49.275Z,100432.92
2019-03-30T15:19:19.353Z,100436.61
2019-03-30T15:21:49.468Z,100432.29
2019-03-30T15:24:19.539Z,100432.29
2019-03-30T15:26:59.691Z,100426.06
2019-03-30T15:29:21.626Z,100426.77
2019-03-30T15:31:51.716Z,100426.00
2019-03-30T15:34:21.774Z,100419.32
2019-03-30T15:36:51.881Z,100429.70
2019-03-30T15:39:21.988Z,100428.39
2019-03-30T15:41:52.075Z,100425.61
2019-03-30T15:44:22.252Z,100418.29
2019-03-30T15:46:52.631Z,100420.95
2019-03-30T15:49:22.703Z,100416.66
2019-03-30T15:51:52.787Z,100423.27
2019-03-30T15:54:22.876Z,100418.25
2019-03-30T15:56:52.977Z,100419.06
2019-03-30T15:59:23.080Z,100420.92
2019-03-30T16:01:53.148Z,100413.77
2019-03-30T16:04:23.264Z,100411.32
2019-03-30T16:06:53.358Z,100412.41
2019-03-30T16:09:23.610Z,100409.13
2019-03-30T16:11:53.771Z,100413.21
2019-03-30T16:14:23.879Z,100411.77
2019-03-30T16:16:53.971Z,100410.66
2019-03-30T16:19:24.102Z,100407.69
2019-03-30T16:21:54.208Z,100411.13
2019-03-30T16:24:24.465Z,100406.47
2019-03-30T16:26:54.555Z,100408.21
2019-03-30T16:29:24.750Z,100408.30
2019-03-30T16:31:54.930Z,100410.33
2019-03-30T16:34:25.046Z,100405.15
2019-03-30T16:36:55.151Z,100407.08
2019-03-30T16:39:25.288Z,100407.78
2019-03-30T16:41:55.368Z,100409.33
2019-03-30T16:44:25.469Z,100405.14
2019-03-30T16:46:57.473Z,100406.48
2019-03-30T16:49:27.505Z,100409.05
2019-03-30T16:51:57.656Z,100411.41
2019-03-30T16:54:27.730Z,100413.26
2019-03-30T16:56:57.826Z,100411.59
2019-03-30T16:59:27.955Z,100413.59
2019-03-30T17:01:58.092Z,100413.60
2019-03-30T17:04:29.692Z,100410.55
2019-03-30T17:07:00.006Z,100413.89
2019-03-30T17:09:30.099Z,100421.94
2019-03-30T17:12:00.204Z,100420.20
2019-03-30T17:14:30.304Z,100418.16
2019-03-30T17:17:00.432Z,100416.44
2019-03-30T17:19:30.521Z,100430.47
2019-03-30T17:22:00.640Z,100422.72
2019-03-30T17:24:30.712Z,100425.53
2019-03-30T17:27:00.871Z,100428.67
2019-03-30T17:29:30.972Z,100427.94
2019-03-30T17:32:01.065Z,100429.85
2019-03-30T17:34:31.173Z,100431.64
2019-03-30T17:37:01.257Z,100436.41
2019-03-30T17:39:31.465Z,100438.53
2019-03-30T17:42:01.546Z,100445.69
2019-03-30T17:44:31.684Z,100444.92
2019-03-30T17:47:01.794Z,100444.21
2019-03-30T17:49:31.896Z,100441.78
2019-03-30T17:52:01.973Z,100445.91
2019-03-30T17:54:32.149Z,100449.65
2019-03-30T17:57:02.247Z,100449.59
2019-03-30T17:59:32.330Z,100453.53
2019-03-30T18:02:02.442Z,100454.30
2019-03-30T18:04:32.920Z,100457.73
2019-03-30T18:07:03.095Z,100453.30
2019-03-30T18:09:33.210Z,100456.27
2019-03-30T18:12:03.297Z,100464.78
2019-03-30T18:14:33.384Z,100461.33
2019-03-30T18:17:03.489Z,100463.10
2019-03-30T18:19:33.562Z,100464.48
2019-03-30T18:22:03.662Z,100462.45
2019-03-30T18:24:33.780Z,100461.56
2019-03-30T18:27:03.873Z,100461.15
2019-03-30T18:29:33.925Z,100463.97
2019-03-30T18:32:04.022Z,100463.93
2019-03-30T18:34:34.111Z,100463.23
2019-03-30T18:37:04.279Z,100457.66
2019-03-30T18:39:34.426Z,100464.31
2019-03-30T18:42:04.497Z,100463.52
2019-03-30T18:44:34.634Z,100464.21
2019-03-30T18:47:07.816Z,100460.34
2019-03-30T18:49:37.909Z,100456.67
2019-03-30T18:52:08.090Z,100460.34
2019-03-30T18:54:38.174Z,100460.94
2019-03-30T18:57:08.285Z,100463.36
2019-03-30T18:59:38.423Z,100463.08
2019-03-30T19:02:08.569Z,100465.92
2019-03-30T19:04:38.659Z,100472.76
2019-03-30T19:07:08.768Z,100469.02
2019-03-30T19:09:38.837Z,100467.33
2019-03-30T19:12:08.940Z,100465.59
2019-03-30T19:14:39.051Z,100466.94
2019-03-30T19:17:09.128Z,100469.53
2019-03-30T19:19:39.205Z,100463.08
2019-03-30T19:22:09.315Z,100471.03
2019-03-30T19:24:39.418Z,100465.20
2019-03-30T19:27:09.498Z,100471.63
2019-03-30T19:29:39.595Z,100467.05
2019-03-30T19:32:09.815Z,100465.03
2019-03-30T19:34:39.885Z,100466.42
2019-03-30T19:37:09.979Z,100468.88
2019-03-30T19:39:40.136Z,100459.82
2019-03-30T19:42:10.231Z,100463.13
2019-03-30T19:44:40.318Z,100470.44
2019-03-30T19:47:10.433Z,100469.32
2019-03-30T19:49:40.488Z,100470.92
2019-03-30T19:52:10.569Z,100469.37
2019-03-30T19:54:41.322Z,100464.55
2019-03-30T19:57:11.389Z,100463.53
2019-03-30T19:59:41.897Z,100466.70
2019-03-30T20:02:12.090Z,100464.87
2019-03-30T20:04:42.165Z,100468.55
2019-03-30T20:07:12.255Z,100466.86
2019-03-30T20:09:42.499Z,100460.31
2019-03-30T20:12:12.737Z,100457.42
2019-03-30T20:14:43.547Z,100463.39
2019-03-30T20:17:13.653Z,100459.69
2019-03-30T20:19:44.060Z,100453.63
2019-03-30T20:22:14.221Z,100460.94
2019-03-30T20:24:44.309Z,100453.19
2019-03-30T20:27:14.544Z,100461.20
2019-03-30T20:29:44.691Z,100454.47
2019-03-30T20:32:22.061Z,100446.45
2019-03-30T20:34:52.239Z,100446.72
2019-03-30T20:37:22.317Z,100441.64
2019-03-30T20:39:52.455Z,100443.77
2019-03-30T20:42:22.585Z,100447.55
2019-03-30T20:44:52.672Z,100447.14
2019-03-30T20:47:22.830Z,100446.20
2019-03-30T20:49:52.949Z,100444.58
2019-03-30T20:52:23.162Z,100444.84
2019-03-30T20:54:53.298Z,100442.44
2019-03-30T20:57:23.388Z,100450.39
2019-03-30T20:59:53.470Z,100446.25
2019-03-30T21:02:23.555Z,100442.38
2019-03-30T21:04:53.651Z,100443.00
2019-03-30T21:07:23.721Z,100441.86
2019-03-30T21:09:53.811Z,100436.30
2019-03-30T21:12:23.874Z,100433.89
2019-03-30T21:14:53.970Z,100437.96
2019-03-30T21:17:24.063Z,100434.38
2019-03-30T21:19:54.169Z,100436.47
2019-03-30T21:22:24.272Z,100433.44
2019-03-30T21:24:54.341Z,100437.57
2019-03-30T21:27:24.409Z,100428.66
2019-03-30T21:29:55.496Z,100424.29
2019-03-30T21:32:25.581Z,100432.69
2019-03-30T21:34:55.673Z,100433.30
2019-03-30T21:37:25.766Z,100434.44
2019-03-30T21:39:55.921Z,100429.59
2019-03-30T21:42:26.025Z,100432.19
2019-03-30T21:44:56.094Z,100428.44
2019-03-30T21:47:26.214Z,100428.98
2019-03-30T21:49:56.294Z,100425.17
2019-03-30T21:52:26.418Z,100430.63
2019-03-30T21:54:58.110Z,100427.86
2019-03-30T21:57:28.441Z,100422.45
2019-03-30T22:00:09.756Z,100421.25
2019-03-30T22:02:34.559Z,100419.19
2019-03-30T22:05:04.682Z,100418.47
2019-03-30T22:07:35.732Z,100417.39
2019-03-30T22:10:07.224Z,100414.66
2019-03-30T22:12:38.236Z,100414.91
2019-03-30T22:15:08.421Z,100414.47
2019-03-30T22:17:38.551Z,100419.61
2019-03-30T22:20:08.764Z,100410.30
2019-03-30T22:22:38.896Z,100404.73
2019-03-30T22:25:09.155Z,100406.96
2019-03-30T22:27:39.245Z,100402.16
2019-03-30T22:30:23.692Z,100399.99
2019-03-30T22:32:41.165Z,100405.24
2019-03-30T22:35:11.258Z,100407.30
2019-03-30T22:37:41.333Z,100408.68
2019-03-30T22:40:12.149Z,100404.81
2019-03-30T22:42:42.225Z,100404.94
2019-03-30T22:45:12.318Z,100408.56
2019-03-30T22:47:42.403Z,100402.27
2019-03-30T22:50:12.497Z,100404.33
2019-03-30T22:52:42.568Z,100409.17
2019-03-30T22:55:12.678Z,100411.23
2019-03-30T22:57:42.782Z,100402.43
2019-03-30T23:00:38.536Z,100409.34
2019-03-30T23:03:04.246Z,100401.59
2019-03-30T23:05:34.354Z,100400.41
2019-03-30T23:08:04.456Z,100402.63
2019-03-30T23:10:34.648Z,100402.51
2019-03-30T23:13:04.805Z,100398.39
2019-03-30T23:15:34.920Z,100406.14
2019-03-30T23:18:05.095Z,100394.88
2019-03-30T23:20:35.191Z,100391.98
2019-03-30T23:23:05.341Z,100396.45
2019-03-30T23:25:35.589Z,100394.44
2019-03-30T23:28:05.694Z,100397.45
2019-03-30T23:30:35.784Z,100397.09
2019-03-30T23:33:05.861Z,100397.58
2019-03-30T23:35:35.961Z,100399.87
2019-03-30T23:38:06.070Z,100396.52
2019-03-30T23:40:36.164Z,100397.48
2019-03-30T23:43:06.263Z,100395.34
2019-03-30T23:45:36.345Z,100392.67
2019-03-30T23:48:06.439Z,100389.19
2019-03-30T23:50:36.572Z,100389.42
2019-03-30T23:53:07.582Z,100390.76
2019-03-30T23:55:37.867Z,100388.73
2019-03-30T23:58:07.931Z,100388.12
